Time;durP1;ratioP1;P1;durP2;ratioP2;P2;SDS_P1;SDS_P2;PMS_P1;PMS_P2;Temp;Humidity;BMP_temperature;BMP_pressure;BME280_temperature;BME280_humidity;BME280_pressure;Samples;Min_cycle;Max_cycle;Signal;HPM_P1;HPM_P2
2021/08/29 00:00:24;;;;;;;;;;;;;;;-142.75;78.85;77310.50;4972292;28;19921;-79
2021/08/29 00:02:49;;;;;;;;;;;;;;;-142.75;79.02;77322.31;4970979;28;19918;-77
2021/08/29 00:05:15;;;;;;;;;;;;;;;-142.75;79.32;77324.28;4972409;28;19921;-79
2021/08/29 00:07:40;;;;;;;;;;;;;;;-142.75;79.55;77326.25;4970824;28;19920;-79
2021/08/29 00:10:06;;;;;;;;;;;;;;;-142.75;79.47;77324.28;5003447;23;20536;-77
2021/08/29 00:12:31;;;;;;;;;;;;;;;-142.75;79.58;77322.31;4991717;28;19922;-76
2021/08/29 00:14:57;;;;;;;;;;;;;;;-142.75;79.93;77324.28;5009903;28;19913;-76
2021/08/29 00:17:22;;;;;;;;;;;;;;;-142.75;79.87;77326.25;5010091;28;20016;-77
2021/08/29 00:19:48;;;;;;;;;;;;;;;-142.75;79.98;77326.25;5010134;28;19921;-76
2021/08/29 00:22:13;;;;;;;;;;;;;;;-142.75;80.09;77316.41;5000214;28;19918;-77
2021/08/29 00:24:38;;;;;;;;;;;;;;;-142.75;80.03;77320.34;4990163;28;19921;-81
2021/08/29 00:27:03;;;;;;;;;;;;;;;-142.75;80.36;77314.44;4988484;28;19920;-78
2021/08/29 00:29:28;;;;;;;;;;;;;;;-142.75;80.35;77314.44;4990182;28;19922;-78
2021/08/29 00:31:54;;;;;;;;;;;;;;;-142.75;80.36;77308.53;4989607;28;20424;-77
2021/08/29 00:34:19;;;;;;;;;;;;;;;-142.75;80.33;77306.56;4996468;28;20299;-77
2021/08/29 00:36:44;;;;;;;;;;;;;;;-142.75;80.63;77308.53;4991563;28;19913;-77
2021/08/29 00:39:09;;;;;;;;;;;;;;;-142.75;81.01;77306.56;4991218;28;20416;-77
2021/08/29 00:41:34;;;;;;;;;;;;;;;-142.75;81.04;77312.47;4989592;28;19971;-77
2021/08/29 00:44:01;;;;;;;;;;;;;;;-142.75;81.16;77306.56;4990961;28;19914;-77
2021/08/29 00:46:26;;;;;;;;;;;;;;;-142.75;81.20;77310.50;4989758;28;19967;-77
2021/08/29 00:48:51;;;;;;;;;;;;;;;-142.75;81.52;77310.50;4997623;28;19913;-78
2021/08/29 00:51:17;;;;;;;;;;;;;;;-142.75;81.69;77314.44;5008308;28;19920;-78
2021/08/29 00:53:44;;;;;;;;;;;;;;;-142.75;81.84;77314.44;4989655;28;19945;-79
2021/08/29 00:56:09;;;;;;;;;;;;;;;-142.75;81.63;77308.53;4990986;28;20490;-78
2021/08/29 00:58:34;;;;;;;;;;;;;;;-142.75;81.51;77312.47;4992757;28;19996;-77
2021/08/29 01:01:00;;;;;;;;;;;;;;;-142.75;81.55;77318.38;5011166;28;19924;-78
2021/08/29 01:03:27;;;;;;;;;;;;;;;-142.75;81.42;77316.41;5007121;28;20001;-78
2021/08/29 01:06:00;;;;;;;;;;;;;;;-142.75;81.62;77318.38;4989720;28;19928;-78
2021/08/29 01:08:29;;;;;;;;;;;;;;;-142.75;81.56;77318.38;4994529;28;19913;-77
2021/08/29 01:10:56;;;;;;;;;;;;;;;-142.75;81.44;77318.38;5001251;28;19982;-77
2021/08/29 01:13:24;;;;;;;;;;;;;;;-142.75;81.48;77318.38;4995342;28;19999;-78
2021/08/29 01:15:51;;;;;;;;;;;;;;;-142.75;81.42;77320.34;5011148;28;20382;-79
2021/08/29 01:18:19;;;;;;;;;;;;;;;-142.75;81.33;77318.38;5002128;28;20009;-78
2021/08/29 01:20:50;;;;;;;;;;;;;;;-142.75;81.11;77306.56;5002547;28;20424;-79
2021/08/29 01:23:15;;;;;;;;;;;;;;;-142.75;80.92;77302.63;5002203;28;19917;-79
2021/08/29 01:25:46;;;;;;;;;;;;;;;-142.75;80.55;77302.63;4993583;28;19923;-78
2021/08/29 01:28:13;;;;;;;;;;;;;;;-142.75;80.20;77304.59;4993996;28;20520;-78
2021/08/29 01:30:39;;;;;;;;;;;;;;;-142.75;80.54;77304.59;5010357;28;19920;-78
2021/08/29 01:33:07;;;;;;;;;;;;;;;-142.75;80.15;77304.59;4994564;28;19913;-78
2021/08/29 01:35:32;;;;;;;;;;;;;;;-142.75;79.44;77306.56;5011992;28;19914;-78
2021/08/29 01:37:57;;;;;;;;;;;;;;;-142.75;79.44;77300.66;5007901;28;19937;-78
2021/08/29 01:40:23;;;;;;;;;;;;;;;-142.75;79.26;77304.59;4990320;28;20008;-78
2021/08/29 01:42:48;;;;;;;;;;;;;;;-142.75;79.22;77302.63;4991048;28;19921;-78
2021/08/29 01:45:15;;;;;;;;;;;;;;;-142.75;79.09;77304.59;4989935;28;20378;-77
2021/08/29 01:47:40;;;;;;;;;;;;;;;-142.75;79.15;77310.50;4995088;28;19933;-78
2021/08/29 01:50:06;;;;;;;;;;;;;;;-142.75;79.05;77304.59;4992824;28;19913;-77
2021/08/29 01:52:31;;;;;;;;;;;;;;;-142.75;78.99;77310.50;4991307;28;19953;-78
2021/08/29 01:54:56;;;;;;;;;;;;;;;-142.75;78.61;77312.47;4992648;28;20297;-78
2021/08/29 01:57:21;;;;;;;;;;;;;;;-142.75;78.47;77308.53;5009855;28;19982;-77
2021/08/29 01:59:47;;;;;;;;;;;;;;;-142.75;78.19;77310.50;4995660;28;20411;-76
2021/08/29 02:02:13;;;;;;;;;;;;;;;-142.75;78.01;77310.50;4988455;28;19918;-78
2021/08/29 02:04:39;;;;;;;;;;;;;;;-142.75;77.95;77312.47;4989538;28;19914;-78
2021/08/29 02:07:13;;;;;;;;;;;;;;;-142.75;78.20;77308.53;4986611;28;20543;-78
2021/08/29 02:09:40;;;;;;;;;;;;;;;-142.75;77.21;77304.59;4995846;28;19938;-77
2021/08/29 02:12:07;;;;;;;;;;;;;;;-142.75;77.07;77304.59;4993739;28;20409;-77
2021/08/29 02:14:34;;;;;;;;;;;;;;;-142.75;76.94;77302.63;5009105;28;19913;-77
2021/08/29 02:17:00;;;;;;;;;;;;;;;-142.75;76.84;77306.56;5004619;28;19913;-77
2021/08/29 02:19:29;;;;;;;;;;;;;;;-142.75;76.31;77302.63;4992267;28;20028;-77
2021/08/29 02:21:55;;;;;;;;;;;;;;;-142.75;75.95;77298.69;5004449;28;19922;-77
2021/08/29 02:24:21;;;;;;;;;;;;;;;-142.75;76.06;77302.63;4992101;28;19921;-77
2021/08/29 02:26:47;;;;;;;;;;;;;;;-142.75;76.09;77300.66;5000528;28;20058;-78
2021/08/29 02:29:13;;;;;;;;;;;;;;;-142.75;76.21;77300.66;4992904;28;20379;-79
2021/08/29 02:31:38;;;;;;;;;;;;;;;-142.75;75.64;77294.75;5008435;28;19920;-78
2021/08/29 02:34:03;;;;;;;;;;;;;;;-142.75;75.70;77298.69;5001224;28;19913;-79
2021/08/29 02:36:30;;;;;;;;;;;;;;;-142.75;75.67;77298.69;4988741;28;19913;-77
2021/08/29 02:38:55;;;;;;;;;;;;;;;-142.75;75.79;77306.56;4990290;28;20012;-78
2021/08/29 02:41:22;;;;;;;;;;;;;;;-142.75;75.94;77306.56;5007010;28;20623;-78
2021/08/29 02:43:48;;;;;;;;;;;;;;;-142.75;75.84;77300.66;4989585;28;19998;-77
2021/08/29 02:46:13;;;;;;;;;;;;;;;-142.75;76.33;77310.50;4989111;28;20009;-78
2021/08/29 02:48:38;;;;;;;;;;;;;;;-142.75;76.57;77314.44;4989259;28;19913;-77
2021/08/29 02:51:03;;;;;;;;;;;;;;;-142.75;76.69;77312.47;4990061;28;19921;-77
2021/08/29 02:53:29;;;;;;;;;;;;;;;-142.75;76.57;77308.53;5008474;28;19914;-77
2021/08/29 02:55:56;;;;;;;;;;;;;;;-142.75;76.34;77302.63;4990778;28;19927;-77
2021/08/29 02:58:21;;;;;;;;;;;;;;;-142.75;76.09;77304.59;5007942;28;20341;-77
2021/08/29 03:00:47;;;;;;;;;;;;;;;-142.75;76.16;77300.66;4990053;28;19916;-78
2021/08/29 03:03:12;;;;;;;;;;;;;;;-142.75;75.98;77302.63;4989025;28;19918;-78
2021/08/29 03:05:38;;;;;;;;;;;;;;;-142.75;75.63;77306.56;4996347;28;19914;-77
2021/08/29 03:08:03;;;;;;;;;;;;;;;-142.75;75.71;77308.53;4988642;28;19914;-77
2021/08/29 03:10:28;;;;;;;;;;;;;;;-142.75;75.80;77308.53;4988166;28;19914;-77
2021/08/29 03:12:53;;;;;;;;;;;;;;;-142.75;76.20;77310.50;4988741;28;19913;-77
2021/08/29 03:15:19;;;;;;;;;;;;;;;-142.75;76.26;77312.47;4988906;28;19920;-77
2021/08/29 03:17:44;;;;;;;;;;;;;;;-142.75;76.19;77312.47;4988188;28;20008;-78
2021/08/29 03:20:10;;;;;;;;;;;;;;;-142.75;76.13;77314.44;4986758;28;19914;-77
2021/08/29 03:22:36;;;;;;;;;;;;;;;-142.75;76.40;77314.44;4988194;28;19917;-77
2021/08/29 03:25:01;;;;;;;;;;;;;;;-142.75;76.20;77314.44;4988517;28;19918;-77
2021/08/29 03:27:27;;;;;;;;;;;;;;;-142.75;76.37;77314.44;4989984;28;19914;-77
2021/08/29 03:29:52;;;;;;;;;;;;;;;-142.75;76.37;77320.34;4989706;28;19913;-77
2021/08/29 03:32:20;;;;;;;;;;;;;;;-142.75;76.32;77316.41;4989305;28;19962;-77
2021/08/29 03:34:46;;;;;;;;;;;;;;;-142.75;76.67;77320.34;5007791;28;19913;-77
2021/08/29 03:37:11;;;;;;;;;;;;;;;-142.75;76.88;77318.38;5007486;28;20325;-77
2021/08/29 03:39:37;;;;;;;;;;;;;;;-142.75;76.98;77326.25;5007512;28;19917;-78
2021/08/29 03:42:02;;;;;;;;;;;;;;;-142.75;76.92;77326.25;5007310;28;19941;-77
2021/08/29 03:44:27;;;;;;;;;;;;;;;-142.75;77.18;77322.31;5008239;28;19986;-77
2021/08/29 03:46:53;;;;;;;;;;;;;;;-142.75;76.91;77320.34;5006625;28;20394;-77
2021/08/29 03:49:18;;;;;;;;;;;;;;;-142.75;76.88;77310.50;4997399;28;19913;-76
2021/08/29 03:51:45;;;;;;;;;;;;;;;-142.75;76.73;77306.56;4989791;28;19920;-77
2021/08/29 03:54:12;;;;;;;;;;;;;;;-142.75;76.76;77304.59;4988139;28;19940;-78
2021/08/29 03:56:37;;;;;;;;;;;;;;;-142.75;76.66;77298.69;4988264;28;19920;-78
2021/08/29 03:59:03;;;;;;;;;;;;;;;-142.75;76.49;77294.75;4986572;28;19913;-77
2021/08/29 04:01:28;;;;;;;;;;;;;;;-142.75;76.44;77292.78;4989657;28;20019;-77
2021/08/29 04:03:53;;;;;;;;;;;;;;;-142.75;76.31;77282.94;4991756;28;19913;-77
2021/08/29 04:06:19;;;;;;;;;;;;;;;-142.75;76.19;77282.94;4988414;28;19953;-77
2021/08/29 04:08:46;;;;;;;;;;;;;;;-142.75;76.09;77277.03;4992280;28;19914;-77
2021/08/29 04:11:12;;;;;;;;;;;;;;;-142.75;76.31;77286.88;4989641;28;19917;-77
2021/08/29 04:13:38;;;;;;;;;;;;;;;-142.75;76.36;77284.91;4990523;28;19922;-78
2021/08/29 04:16:03;;;;;;;;;;;;;;;-142.75;76.30;77277.03;5001517;28;20450;-78
2021/08/29 04:18:31;;;;;;;;;;;;;;;-142.75;76.31;77280.97;5006521;28;19913;-77
2021/08/29 04:20:56;;;;;;;;;;;;;;;-142.75;76.34;77265.22;4986578;28;19928;-78
2021/08/29 04:23:21;;;;;;;;;;;;;;;-142.75;76.06;77263.25;4989145;28;19918;-77
2021/08/29 04:25:47;;;;;;;;;;;;;;;-142.75;76.33;77267.19;4989850;28;19917;-77
2021/08/29 04:28:12;;;;;;;;;;;;;;;-142.75;76.52;77265.22;4991546;28;19921;-78
2021/08/29 04:30:37;;;;;;;;;;;;;;;-142.75;76.74;77267.19;4998694;28;19922;-77
2021/08/29 04:33:03;;;;;;;;;;;;;;;-142.75;76.99;77265.22;5007534;28;19913;-78
2021/08/29 04:35:28;;;;;;;;;;;;;;;-142.75;76.98;77263.25;4990223;28;20335;-77
2021/08/29 04:37:53;;;;;;;;;;;;;;;-142.75;77.22;77273.09;5006633;28;19920;-79
2021/08/29 04:40:18;;;;;;;;;;;;;;;-142.75;77.06;77275.06;5002993;28;19929;-78
2021/08/29 04:42:43;;;;;;;;;;;;;;;-142.75;77.39;77273.09;4987846;28;19925;-77
2021/08/29 04:45:09;;;;;;;;;;;;;;;-142.75;77.74;77277.03;5007014;28;19929;-78
2021/08/29 04:47:34;;;;;;;;;;;;;;;-142.75;77.92;77284.91;4992019;28;19913;-79
2021/08/29 04:49:59;;;;;;;;;;;;;;;-142.75;78.13;77282.94;4989661;28;19922;-77
2021/08/29 04:52:24;;;;;;;;;;;;;;;-142.75;78.45;77286.88;4991179;28;19914;-78
2021/08/29 04:54:50;;;;;;;;;;;;;;;-142.75;78.65;77286.88;4997773;28;20327;-78
2021/08/29 04:57:15;;;;;;;;;;;;;;;-142.75;78.84;77288.84;5010742;28;19957;-78
2021/08/29 04:59:40;;;;;;;;;;;;;;;-142.75;78.79;77288.84;4990294;28;19921;-77
2021/08/29 05:02:05;;;;;;;;;;;;;;;-142.75;79.02;77286.88;4990730;28;20394;-77
2021/08/29 05:04:30;;;;;;;;;;;;;;;-142.75;78.95;77286.88;5000561;28;19917;-77
2021/08/29 05:06:55;;;;;;;;;;;;;;;-142.75;78.77;77279.00;5001241;28;19914;-78
2021/08/29 05:09:21;;;;;;;;;;;;;;;-142.75;78.98;77288.84;4989985;28;20019;-78
2021/08/29 05:11:46;;;;;;;;;;;;;;;-142.75;79.17;77282.94;4993163;28;20370;-77
2021/08/29 05:14:11;;;;;;;;;;;;;;;-142.75;79.26;77288.84;4990468;28;19914;-78
2021/08/29 05:16:36;;;;;;;;;;;;;;;-142.75;79.46;77292.78;4999897;28;19913;-78
2021/08/29 05:19:02;;;;;;;;;;;;;;;-142.75;79.69;77290.81;4993324;28;19975;-78
2021/08/29 05:21:27;;;;;;;;;;;;;;;-142.75;79.67;77286.88;4993643;28;20302;-77
2021/08/29 05:23:52;;;;;;;;;;;;;;;-142.75;79.52;77286.88;5000199;28;20275;-79
2021/08/29 05:26:17;;;;;;;;;;;;;;;-142.75;79.95;77282.94;4989667;28;20004;-78
2021/08/29 05:28:42;;;;;;;;;;;;;;;-142.75;79.37;77275.06;5005616;28;19948;-77
2021/08/29 05:31:08;;;;;;;;;;;;;;;-142.75;78.96;77275.06;5009019;28;20275;-78
2021/08/29 05:33:33;;;;;;;;;;;;;;;-142.75;78.71;77251.44;4989450;28;19914;-77
2021/08/29 05:35:58;;;;;;;;;;;;;;;-142.75;78.26;77251.44;4989802;28;20294;-77
2021/08/29 05:38:24;;;;;;;;;;;;;;;-142.75;78.17;77251.44;4990471;28;19914;-77
2021/08/29 05:40:49;;;;;;;;;;;;;;;-142.75;78.06;77251.44;5003505;28;19920;-78
2021/08/29 05:43:14;;;;;;;;;;;;;;;-142.75;78.27;77255.38;4995546;28;19918;-77
2021/08/29 05:45:39;;;;;;;;;;;;;;;-142.75;78.17;77253.41;4990432;28;19913;-79
2021/08/29 05:48:05;;;;;;;;;;;;;;;-142.75;78.32;77253.41;4992008;28;19966;-78
2021/08/29 05:50:30;;;;;;;;;;;;;;;-142.75;78.25;77253.41;5008764;28;20026;-77
2021/08/29 05:52:55;;;;;;;;;;;;;;;-142.75;78.32;77251.44;4991781;28;19913;-77
2021/08/29 05:55:20;;;;;;;;;;;;;;;-142.75;78.01;77243.56;5008462;28;19921;-77
2021/08/29 05:57:45;;;;;;;;;;;;;;;-142.75;77.90;77239.63;4993320;28;19913;-77
2021/08/29 06:00:11;;;;;;;;;;;;;;;-142.75;77.86;77237.66;4987820;28;20298;-79
2021/08/29 06:02:36;;;;;;;;;;;;;;;-142.75;77.76;77237.66;5003494;28;20024;-77
2021/08/29 06:05:02;;;;;;;;;;;;;;;-142.75;77.83;77231.75;5009485;28;19920;-77
2021/08/29 06:07:27;;;;;;;;;;;;;;;-142.75;78.04;77231.75;4992141;28;19987;-79
2021/08/29 06:09:52;;;;;;;;;;;;;;;-142.75;77.65;77223.88;5018700;22;20083;-80
2021/08/29 06:12:17;;;;;;;;;;;;;;;-142.75;77.79;77229.78;5032797;28;19944;-78
2021/08/29 06:14:42;;;;;;;;;;;;;;;-142.75;78.10;77219.94;5004647;28;19914;-79
2021/08/29 06:17:07;;;;;;;;;;;;;;;-142.75;77.56;77225.84;4996050;28;19914;-78
2021/08/29 06:19:33;;;;;;;;;;;;;;;-142.75;76.73;77214.03;5002573;28;19999;-80
2021/08/29 06:21:58;;;;;;;;;;;;;;;-142.75;76.53;77202.22;5007751;28;20059;-78
2021/08/29 06:24:23;;;;;;;;;;;;;;;-142.75;76.03;77202.22;5006478;28;19962;-79
2021/08/29 06:26:48;;;;;;;;;;;;;;;-142.75;75.46;77186.47;5069714;28;20008;-79
2021/08/29 06:29:15;;;;;;;;;;;;;;;-142.75;75.12;77186.47;5005318;28;19921;-79
2021/08/29 06:31:41;;;;;;;;;;;;;;;-142.75;74.73;77186.47;5001963;28;20004;-79
2021/08/29 06:34:06;;;;;;;;;;;;;;;-142.75;74.84;77180.56;4999923;28;19952;-79
2021/08/29 06:36:31;;;;;;;;;;;;;;;-142.75;74.78;77182.53;5063381;28;19913;-78
2021/08/29 06:38:58;;;;;;;;;;;;;;;-142.75;74.44;77176.63;5072885;28;21061;-78
2021/08/29 06:41:23;;;;;;;;;;;;;;;-142.75;74.06;77176.63;5069739;28;20000;-78
2021/08/29 06:43:48;;;;;;;;;;;;;;;-142.75;74.25;77170.72;5071229;28;19945;-79
2021/08/29 06:46:14;;;;;;;;;;;;;;;-142.75;74.48;77166.78;5070855;28;19948;-82
2021/08/29 06:48:39;;;;;;;;;;;;;;;-142.75;73.66;77153.00;5000267;28;20363;-79
2021/08/29 06:51:04;;;;;;;;;;;;;;;-142.75;73.41;77156.94;5068885;28;19924;-78
2021/08/29 06:53:29;;;;;;;;;;;;;;;-142.75;73.96;77153.00;4996522;28;19921;-79
2021/08/29 06:55:54;;;;;;;;;;;;;;;-142.75;74.01;77143.16;5005806;28;19936;-79
2021/08/29 06:58:20;;;;;;;;;;;;;;;-142.75;73.62;77125.44;4997103;28;20357;-79
2021/08/29 07:00:45;;;;;;;;;;;;;;;-142.75;74.23;77127.41;4991710;28;19921;-79
2021/08/29 07:03:10;;;;;;;;;;;;;;;-142.75;73.78;77115.59;5005606;28;20020;-79
2021/08/29 07:05:35;;;;;;;;;;;;;;;-142.75;73.36;77107.72;4999667;28;19958;-79
2021/08/29 07:08:00;;;;;;;;;;;;;;;-142.75;73.09;77099.84;5072505;28;19931;-79
2021/08/29 07:10:26;;;;;;;;;;;;;;;-142.75;72.95;77084.09;5001294;28;19971;-78
2021/08/29 07:12:51;;;;;;;;;;;;;;;-142.75;72.58;77066.38;5000641;28;19920;-79
2021/08/29 07:15:16;;;;;;;;;;;;;;;-142.75;71.96;77068.34;5001177;28;20295;-79
2021/08/29 07:17:41;;;;;;;;;;;;;;;-142.75;71.40;77066.38;5075353;28;19914;-79
2021/08/29 07:20:07;;;;;;;;;;;;;;;-142.75;71.72;77054.56;5003795;28;19913;-79
2021/08/29 07:22:32;;;;;;;;;;;;;;;-142.75;72.18;77058.50;5074664;28;19917;-79
2021/08/29 07:24:57;;;;;;;;;;;;;;;-142.75;72.21;77054.56;5000687;28;19920;-81
2021/08/29 07:27:22;;;;;;;;;;;;;;;-142.75;72.76;77042.75;5064193;28;19929;-79
2021/08/29 07:29:47;;;;;;;;;;;;;;;-142.75;71.96;77040.78;5005189;28;20393;-80
2021/08/29 07:32:12;;;;;;;;;;;;;;;-142.75;71.80;77030.94;5067886;28;19922;-78
2021/08/29 07:34:40;;;;;;;;;;;;;;;-142.75;70.67;77027.00;5000634;28;19913;-79
2021/08/29 07:37:05;;;;;;;;;;;;;;;-142.75;69.88;77021.09;5003894;28;20302;-81
2021/08/29 07:39:30;;;;;;;;;;;;;;;-142.75;69.99;77017.16;5067769;28;19914;-79
2021/08/29 07:41:56;;;;;;;;;;;;;;;-142.75;70.01;77013.22;5002605;28;19925;-79
2021/08/29 07:44:21;;;;;;;;;;;;;;;-142.75;70.28;77015.19;5069327;28;20438;-80
2021/08/29 07:46:46;;;;;;;;;;;;;;;-142.75;71.10;77007.31;5071175;28;20401;-79
2021/08/29 07:49:11;;;;;;;;;;;;;;;-142.75;71.22;77005.34;5063587;28;20399;-80
2021/08/29 07:51:36;;;;;;;;;;;;;;;-142.75;70.27;77003.38;5071565;28;19921;-79
2021/08/29 07:54:02;;;;;;;;;;;;;;;-142.75;70.55;77015.19;5073600;28;19948;-80
2021/08/29 07:56:27;;;;;;;;;;;;;;;-142.75;70.13;77023.06;5068017;28;19967;-80
2021/08/29 07:58:52;;;;;;;;;;;;;;;-142.75;70.00;77019.13;5001439;28;19914;-79
2021/08/29 08:01:17;;;;;;;;;;;;;;;-142.75;69.69;77015.19;4995372;28;19928;-78
2021/08/29 08:03:43;;;;;;;;;;;;;;;-142.75;70.48;77023.06;5067209;28;20272;-79
2021/08/29 08:06:08;;;;;;;;;;;;;;;-142.75;70.47;77025.03;5065719;28;20389;-79
2021/08/29 08:08:34;;;;;;;;;;;;;;;-142.75;70.96;77030.94;5000475;28;19936;-80
2021/08/29 08:10:59;;;;;;;;;;;;;;;-142.75;71.05;77032.91;5070577;28;19963;-79
2021/08/29 08:13:24;;;;;;;;;;;;;;;-142.75;71.32;77038.81;5072169;28;19935;-78
2021/08/29 08:15:49;;;;;;;;;;;;;;;-142.75;71.44;77040.78;5067573;28;20411;-80
2021/08/29 08:18:15;;;;;;;;;;;;;;;-142.75;71.07;77050.63;5002853;28;19921;-79
2021/08/29 08:20:40;;;;;;;;;;;;;;;-142.75;71.29;77046.69;5001453;28;19914;-80
2021/08/29 08:23:05;;;;;;;;;;;;;;;-142.75;71.93;77060.47;5000340;28;20008;-78
2021/08/29 08:25:30;;;;;;;;;;;;;;;-142.75;71.70;77054.56;5073779;28;19913;-79
2021/08/29 08:27:55;;;;;;;;;;;;;;;-142.75;71.41;77048.66;5001353;28;19918;-78
2021/08/29 08:30:21;;;;;;;;;;;;;;;-142.75;71.20;77044.72;5001447;28;19914;-78
2021/08/29 08:32:46;;;;;;;;;;;;;;;-142.75;71.24;77032.91;5007310;28;20275;-79
2021/08/29 08:35:11;;;;;;;;;;;;;;;-142.75;71.53;77040.78;5006930;28;20041;-79
2021/08/29 08:37:37;;;;;;;;;;;;;;;-142.75;71.62;77034.88;5005589;28;19993;-79
2021/08/29 08:40:02;;;;;;;;;;;;;;;-142.75;70.99;77028.97;5072833;28;19914;-78
2021/08/29 08:42:27;;;;;;;;;;;;;;;-142.75;71.51;77015.19;4997741;28;20000;-79
2021/08/29 08:44:53;;;;;;;;;;;;;;;-142.75;71.82;77019.13;4999618;28;19913;-80
2021/08/29 08:47:19;;;;;;;;;;;;;;;-142.75;71.53;77005.34;5072020;28;20027;-79
2021/08/29 08:49:44;;;;;;;;;;;;;;;-142.75;70.84;77015.19;5006935;28;19917;-79
2021/08/29 08:52:22;;;;;;;;;;;;;;;-142.75;70.65;76999.44;5001603;28;19928;-79
2021/08/29 08:54:48;;;;;;;;;;;;;;;-142.75;70.36;77007.31;5002830;28;20367;-77
2021/08/29 08:57:14;;;;;;;;;;;;;;;-142.75;70.66;77019.13;5004293;28;19921;-78
2021/08/29 08:59:41;;;;;;;;;;;;;;;-142.75;71.01;77015.19;5072244;28;19914;-79
2021/08/29 09:02:07;;;;;;;;;;;;;;;-142.75;70.73;77011.25;5011526;28;19928;-77
2021/08/29 09:04:32;;;;;;;;;;;;;;;-142.75;71.36;77019.13;5077448;28;19914;-79
2021/08/29 09:06:58;;;;;;;;;;;;;;;-142.75;71.25;77034.88;5065489;28;19914;-79
2021/08/29 09:09:23;;;;;;;;;;;;;;;-142.75;71.43;77038.81;5072873;28;19914;-79
2021/08/29 09:11:49;;;;;;;;;;;;;;;-142.75;71.81;77030.94;4992130;28;20404;-80
2021/08/29 09:14:14;;;;;;;;;;;;;;;-142.75;72.08;77040.78;4997238;28;19913;-78
2021/08/29 09:16:39;;;;;;;;;;;;;;;-142.75;71.76;77028.97;5001592;28;19913;-79
2021/08/29 09:19:05;;;;;;;;;;;;;;;-142.75;71.63;77030.94;5069714;28;20295;-78
2021/08/29 09:21:32;;;;;;;;;;;;;;;-142.75;71.96;77027.00;4997185;28;19987;-79
2021/08/29 09:23:59;;;;;;;;;;;;;;;-142.75;71.75;77023.06;5004728;28;19933;-79
2021/08/29 09:26:25;;;;;;;;;;;;;;;-142.75;71.10;77019.13;4996486;28;20298;-79
2021/08/29 09:28:53;;;;;;;;;;;;;;;-142.75;71.32;77027.00;4997863;28;19920;-79
2021/08/29 09:31:18;;;;;;;;;;;;;;;-142.75;71.72;77034.88;4999293;28;19921;-79
2021/08/29 09:33:57;;;;;;;;;;;;;;;-142.75;71.81;77034.88;5073000;28;19913;-79
2021/08/29 09:36:28;;;;;;;;;;;;;;;-142.75;71.82;77034.88;5071325;28;19920;-79
2021/08/29 09:39:07;;;;;;;;;;;;;;;-142.75;71.65;77034.88;5003338;28;19913;-79
2021/08/29 09:41:32;;;;;;;;;;;;;;;-142.75;71.59;77023.06;5001617;28;19921;-79
2021/08/29 09:44:04;;;;;;;;;;;;;;;-142.75;71.52;77030.94;4997432;28;19981;-79
2021/08/29 09:46:29;;;;;;;;;;;;;;;-142.75;71.15;77027.00;5062066;28;19967;-79
2021/08/29 09:48:56;;;;;;;;;;;;;;;-142.75;71.81;77034.88;5065982;28;19925;-78
2021/08/29 09:51:24;;;;;;;;;;;;;;;-142.75;72.02;77027.00;4998369;28;19921;-79
2021/08/29 09:53:49;;;;;;;;;;;;;;;-142.75;71.81;77028.97;4999256;28;19967;-79
2021/08/29 09:56:18;;;;;;;;;;;;;;;-142.75;71.66;77028.97;5070908;28;19917;-80
2021/08/29 09:58:44;;;;;;;;;;;;;;;-142.75;71.49;77038.81;5072593;28;19949;-78
2021/08/29 10:01:12;;;;;;;;;;;;;;;-142.75;71.04;77036.84;5003844;28;19956;-80
2021/08/29 10:03:41;;;;;;;;;;;;;;;-142.75;71.36;77042.75;5000483;28;19921;-79
2021/08/29 10:06:12;;;;;;;;;;;;;;;-142.75;71.59;77038.81;5070364;28;19913;-78
2021/08/29 10:08:41;;;;;;;;;;;;;;;-142.75;70.16;77034.88;4999407;28;19964;-77
2021/08/29 10:11:06;;;;;;;;;;;;;;;-142.75;69.93;77023.06;4996351;28;19917;-78
2021/08/29 10:13:31;;;;;;;;;;;;;;;-142.75;69.57;77019.13;5063551;28;20386;-78
2021/08/29 10:15:57;;;;;;;;;;;;;;;-142.75;69.61;77007.31;5057250;28;19913;-78
2021/08/29 10:18:22;;;;;;;;;;;;;;;-142.75;70.30;76995.50;4989815;28;19917;-78
2021/08/29 10:20:48;;;;;;;;;;;;;;;-142.75;69.41;76987.63;5072368;28;19921;-77
2021/08/29 10:23:16;;;;;;;;;;;;;;;-142.75;69.96;76977.78;5010460;28;19917;-78
2021/08/29 10:25:41;;;;;;;;;;;;;;;-142.75;69.30;76962.03;5001068;28;19967;-77
2021/08/29 10:28:11;;;;;;;;;;;;;;;-142.75;69.20;76948.25;5077804;28;19917;-76
2021/08/29 10:30:39;;;;;;;;;;;;;;;-142.75;69.08;76936.44;5064890;28;19918;-77
2021/08/29 10:33:05;;;;;;;;;;;;;;;-142.75;67.19;76944.31;4998871;28;19930;-77
2021/08/29 10:35:31;;;;;;;;;;;;;;;-142.75;68.00;76942.34;5064053;28;20378;-79
2021/08/29 10:37:57;;;;;;;;;;;;;;;-142.75;68.79;76932.50;5010053;28;19921;-78
2021/08/29 10:40:23;;;;;;;;;;;;;;;-142.75;68.61;76940.38;4989842;28;20019;-78
2021/08/29 10:42:48;;;;;;;;;;;;;;;-142.75;68.24;76936.44;5001500;28;19979;-78
2021/08/29 10:45:13;;;;;;;;;;;;;;;-142.75;68.09;76952.19;5007696;28;20283;-79
2021/08/29 10:47:39;;;;;;;;;;;;;;;-142.75;68.04;76960.06;4995783;28;19921;-78
2021/08/29 10:50:07;;;;;;;;;;;;;;;-142.75;68.32;76977.78;5062573;28;19914;-78
2021/08/29 10:52:33;;;;;;;;;;;;;;;-142.75;68.65;76981.72;5074184;28;19925;-80
2021/08/29 10:55:06;;;;;;;;;;;;;;;-142.75;69.63;76991.56;5057512;28;19921;-78
2021/08/29 10:57:39;;;;;;;;;;;;;;;-142.75;70.21;76979.75;5000967;28;20752;-77
2021/08/29 11:00:08;;;;;;;;;;;;;;;-142.75;70.45;76991.56;5009224;28;19970;-78
2021/08/29 11:02:37;;;;;;;;;;;;;;;-142.75;70.68;77003.38;4989428;28;20417;-78
2021/08/29 11:05:02;;;;;;;;;;;;;;;-142.75;71.03;77021.09;5003149;28;19924;-77
2021/08/29 11:07:37;;;;;;;;;;;;;;;-142.75;71.37;77015.19;5072571;28;19921;-78
2021/08/29 11:10:02;;;;;;;;;;;;;;;-142.75;71.32;77017.16;5066174;28;19920;-76
2021/08/29 11:12:27;;;;;;;;;;;;;;;-142.75;71.84;77019.13;5065929;28;19914;-78
2021/08/29 11:14:57;;;;;;;;;;;;;;;-142.75;72.09;77015.19;5001782;28;19969;-78
2021/08/29 11:17:30;;;;;;;;;;;;;;;-142.75;72.30;77025.03;4999554;28;19913;-78
2021/08/29 11:20:09;;;;;;;;;;;;;;;-142.75;72.76;77056.53;5068321;28;19919;-77
2021/08/29 11:22:39;;;;;;;;;;;;;;;-142.75;74.72;77074.25;5083642;28;19922;-79
2021/08/29 11:25:05;;;;;;;;;;;;;;;-142.75;76.83;77076.22;5002522;28;19921;-78
2021/08/29 11:27:39;;;;;;;;;;;;;;;-142.75;78.19;77070.31;5001659;28;19948;-78
2021/08/29 11:30:05;;;;;;;;;;;;;;;-142.75;77.64;77058.50;5000507;28;19913;-79
2021/08/29 11:32:31;;;;;;;;;;;;;;;-142.75;77.81;77050.63;4996816;28;20372;-78
2021/08/29 11:35:07;;;;;;;;;;;;;;;-142.75;77.94;77046.69;5064186;28;20182;-78
2021/08/29 11:37:32;;;;;;;;;;;;;;;-142.75;77.74;77038.81;4999123;28;19913;-79
2021/08/29 11:40:02;;;;;;;;;;;;;;;-142.75;76.47;77023.06;5068594;28;19914;-78
2021/08/29 11:42:28;;;;;;;;;;;;;;;-142.75;76.07;77011.25;5070422;28;20341;-77
2021/08/29 11:44:54;;;;;;;;;;;;;;;-142.75;75.91;77003.38;5001644;28;19914;-78
2021/08/29 11:47:20;;;;;;;;;;;;;;;-142.75;75.78;76993.53;5081100;28;19948;-78
2021/08/29 11:49:52;;;;;;;;;;;;;;;-142.75;75.21;76981.72;5002662;28;19987;-78
2021/08/29 11:52:25;;;;;;;;;;;;;;;-142.75;74.71;76975.81;5068068;28;19965;-78
2021/08/29 11:55:02;;;;;;;;;;;;;;;-142.75;74.32;76975.81;5007343;28;19920;-78
2021/08/29 11:57:27;;;;;;;;;;;;;;;-142.75;74.84;76995.50;5006705;28;20008;-78
2021/08/29 12:00:04;;;;;;;;;;;;;;;-142.75;74.79;76999.44;5070091;28;19954;-77
2021/08/29 12:02:39;;;;;;;;;;;;;;;-142.75;74.84;77001.41;5000552;28;19917;-77
2021/08/29 12:05:11;;;;;;;;;;;;;;;-142.75;75.19;76995.50;5006748;28;20375;-78
2021/08/29 12:07:37;;;;;;;;;;;;;;;-142.75;74.83;76987.63;5074355;28;19917;-77
2021/08/29 12:10:03;;;;;;;;;;;;;;;-142.75;74.54;76991.56;5019329;23;19940;-77
2021/08/29 12:12:29;;;;;;;;;;;;;;;-142.75;74.66;76991.56;4969952;28;20305;-78
2021/08/29 12:14:55;;;;;;;;;;;;;;;-142.75;74.91;76997.47;4967872;28;19914;-78
2021/08/29 12:17:21;;;;;;;;;;;;;;;-142.75;75.48;76997.47;5045337;28;20414;-79
2021/08/29 12:19:50;;;;;;;;;;;;;;;-142.75;76.19;77003.38;4961113;28;19918;-77
2021/08/29 12:22:15;;;;;;;;;;;;;;;-142.75;77.22;77015.19;5021362;28;19918;-77